Track Гулевских Александра

Time Latitude Longitude Accuracy (66% radius in meters) Altitude (meters) Speed (km/hour) Bearing (degrees) Battery (%) GPS flag
11:16:57 60.370941 29.556330 16 74 0 91.302612304688 30 0 delete
11:16:44 60.370941 29.556330 16 74 0 91.302612304688 30 0 delete
11:16:32 60.370941 29.556330 16 74 0 91.302612304688 30 0 delete
11:16:19 60.370941 29.556330 16 74 0 91.302612304688 30 0 delete
11:16:07 60.370941 29.556330 16 74 0 91.302612304688 30 0 delete
11:15:54 60.370941 29.556330 16 74 0 91.302612304688 30 0 delete
11:15:42 60.370941 29.556330 16 74 0 91.302612304688 30 0 delete
11:15:29 60.370941 29.556330 16 74 0 91.302612304688 30 0 delete
11:15:17 60.370941 29.556330 16 74 0 91.302612304688 30 0 delete
11:15:04 60.370941 29.556330 16 74 0 91.302612304688 30 0 delete
11:14:54 60.370941 29.556330 16 74 0 91.302612304688 33 0 delete
11:14:41 60.370941 29.556330 16 74 0 91.302612304688 33 0 delete
11:14:29 60.370941 29.556330 16 74 0 91.302612304688 33 0 delete
11:14:16 60.370941 29.556330 16 74 0 91.302612304688 33 0 delete
11:14:04 60.370941 29.556330 16 74 0 91.302612304688 33 0 delete
11:13:51 60.370941 29.556330 16 74 0 91.302612304688 33 0 delete
11:13:38 60.370941 29.556330 16 74 0 91.302612304688 33 0 delete
11:13:26 60.370941 29.556330 16 74 0 91.302612304688 33 0 delete
10:13:08 60.370942 29.556321 12 74 0 91.302612304688 33 1 delete
10:13:04 60.370941 29.556330 16 74 0 91.302612304688 33 1 delete
10:13:01 60.370940 29.556342 12 75 0 91.302612304688 33 1 delete
10:12:49 60.370940 29.556382 24 77 0 91.302612304688 33 1 delete
10:12:40 60.370935 29.556423 8 72 0 57.457473754883 33 1 delete
10:12:36 60.370925 29.556397 8 72 0 61.412902832031 33 1 delete
10:12:23 60.370936 29.556317 12 75 0.69272071123123 147.7795715332 33 1 delete
10:12:11 60.370956 29.556341 12 75 0 195.54005432129 33 1 delete
10:11:59 60.370956 29.556341 12 71 0 195.54005432129 33 1 delete
10:11:46 60.370956 29.556341 24 78 0 195.54005432129 33 1 delete
10:11:33 60.370956 29.556341 8 100 0 195.54005432129 33 1 delete
10:11:20 60.370956 29.556341 16 73 0 195.54005432129 33 1 delete
10:11:07 60.370956 29.556341 12 56 0 195.54005432129 33 1 delete
10:10:54 60.370939 29.556357 8 74 0 195.54005432129 33 1 delete
10:10:41 60.370939 29.556357 12 92 0 195.54005432129 33 1 delete
10:10:28 60.370918 29.556336 12 84 0 195.54005432129 33 1 delete
10:10:27 60.370920 29.556335 6 76 0 195.54005432129 33 1 delete
10:10:20 60.370966 29.556350 8 69 0 195.54005432129 33 1 delete
10:10:16 60.371005 29.556368 6 65 0 195.54005432129 33 1 delete
10:10:03 60.371009 29.556374 12 61 0 195.54005432129 33 1 delete
10:09:49 60.371015 29.556343 6 85 0 195.54005432129 33 1 delete
10:09:48 60.371015 29.556330 6 87 0 195.54005432129 33 1 delete
10:09:39 60.371026 29.556236 12 75 0 195.54005432129 33 1 delete
10:09:36 60.371027 29.556290 12 81 0 195.54005432129 33 1 delete
10:09:31 60.371015 29.556336 6 93 0 195.54005432129 33 1 delete
10:09:24 60.370968 29.556336 6 91 0 152.70492553711 33 1 delete
10:09:23 60.370955 29.556328 6 91 0.32266503572464 152.70492553711 33 1 delete
10:09:10 60.370915 29.556300 12 85 0 39.917961120605 33 1 delete
10:08:57 60.370915 29.556300 12 70 0 39.917961120605 33 1 delete
10:08:44 60.370915 29.556300 12 62 0 39.917961120605 33 1 delete
10:08:31 60.370915 29.556300 12 61 0 39.917961120605 33 1 delete
10:08:18 60.370915 29.556300 24 73 0 39.917961120605 33 1 delete